createdAt,value
2022-10-22T00:00:55.437Z,14.54
2022-10-22T00:03:21.975Z,14.55
2022-10-22T00:05:48.516Z,14.55
2022-10-22T00:08:15.082Z,14.58
2022-10-22T00:10:41.652Z,14.59
2022-10-22T00:13:07.985Z,14.56
2022-10-22T00:15:34.949Z,14.54
2022-10-22T00:18:01.364Z,14.58
2022-10-22T00:20:27.835Z,14.56
2022-10-22T00:22:54.333Z,14.58
2022-10-22T00:25:21.000Z,14.57
2022-10-22T00:27:47.352Z,14.57
2022-10-22T00:30:14.037Z,14.52
2022-10-22T00:32:40.691Z,14.53
2022-10-22T00:35:07.445Z,14.56
2022-10-22T00:37:33.971Z,14.57
2022-10-22T00:40:00.281Z,14.57
2022-10-22T00:42:27.619Z,14.63
2022-10-22T00:45:02.904Z,14.63
2022-10-22T00:47:35.548Z,14.55
2022-10-22T00:50:05.122Z,14.60
2022-10-22T00:52:32.145Z,14.56
2022-10-22T00:54:59.565Z,14.61
2022-10-22T00:57:26.154Z,14.57
2022-10-22T00:59:52.957Z,14.59
2022-10-22T01:02:19.445Z,14.62
2022-10-22T01:04:45.934Z,14.61
2022-10-22T01:07:22.008Z,14.62
2022-10-22T01:10:03.217Z,14.66
2022-10-22T01:12:48.148Z,14.66
2022-10-22T01:15:37.464Z,14.64
2022-10-22T01:18:21.268Z,14.69
2022-10-22T01:20:54.534Z,14.72
2022-10-22T01:23:39.187Z,14.75
2022-10-22T01:28:54.181Z,14.68
2022-10-22T01:31:23.585Z,14.62
2022-10-22T01:33:53.298Z,14.53
2022-10-22T01:36:21.347Z,14.55
2022-10-22T01:38:49.872Z,14.52
2022-10-22T01:41:16.450Z,14.51
2022-10-22T01:43:42.774Z,14.39
2022-10-22T01:46:11.605Z,14.48
2022-10-22T01:48:45.982Z,14.46
2022-10-22T01:51:48.326Z,14.50
2022-10-22T01:54:20.790Z,14.56
2022-10-22T01:57:17.821Z,14.58
2022-10-22T01:59:57.951Z,14.51
2022-10-22T02:02:51.176Z,14.52
2022-10-22T02:05:40.078Z,14.51
2022-10-22T02:08:10.318Z,14.47
2022-10-22T02:10:42.105Z,14.44
2022-10-22T02:13:12.461Z,14.52
2022-10-22T02:15:40.967Z,14.46
2022-10-22T02:18:10.416Z,14.40
2022-10-22T02:20:41.725Z,14.45
2022-10-22T02:23:09.231Z,14.45
2022-10-22T02:25:39.919Z,14.37
2022-10-22T02:28:16.813Z,14.43
2022-10-22T02:30:47.047Z,14.43
2022-10-22T02:33:19.936Z,14.43
2022-10-22T02:35:47.697Z,14.39
2022-10-22T02:38:14.966Z,14.45
2022-10-22T02:40:41.646Z,14.40
2022-10-22T02:43:08.530Z,14.44
2022-10-22T02:45:35.650Z,14.47
2022-10-22T02:48:02.431Z,14.42
2022-10-22T02:50:29.381Z,14.49
2022-10-22T02:52:55.706Z,14.52
2022-10-22T02:55:22.179Z,14.57
2022-10-22T02:57:48.638Z,14.54
2022-10-22T03:00:15.433Z,14.57
2022-10-22T03:02:41.905Z,14.56
2022-10-22T03:05:08.822Z,14.56
2022-10-22T03:07:35.542Z,14.53
2022-10-22T03:10:02.067Z,14.53
2022-10-22T03:12:28.424Z,14.52
2022-10-22T03:14:54.795Z,14.56
2022-10-22T03:17:21.249Z,14.52
2022-10-22T03:19:47.645Z,14.53
2022-10-22T03:22:21.089Z,14.52
2022-10-22T03:24:52.165Z,14.53
2022-10-22T03:27:21.740Z,14.52
2022-10-22T03:29:51.498Z,14.50
2022-10-22T03:32:18.579Z,14.54
2022-10-22T03:34:44.942Z,14.51
2022-10-22T03:37:12.145Z,14.51
2022-10-22T03:39:38.861Z,14.48
2022-10-22T03:42:06.967Z,14.52
2022-10-22T03:44:35.537Z,14.58
2022-10-22T03:47:02.859Z,14.55
2022-10-22T03:49:29.455Z,14.54
2022-10-22T03:51:56.006Z,14.85
2022-10-22T03:54:22.431Z,14.80
2022-10-22T03:56:48.798Z,14.87
2022-10-22T03:59:15.454Z,14.83
2022-10-22T04:01:41.857Z,14.87
2022-10-22T04:04:08.942Z,14.90
2022-10-22T04:06:35.677Z,14.83
2022-10-22T04:09:02.092Z,14.85
2022-10-22T04:11:28.606Z,14.77
2022-10-22T04:13:54.945Z,14.81
2022-10-22T04:16:25.124Z,14.83
2022-10-22T04:18:54.168Z,14.82
2022-10-22T04:21:20.648Z,14.84
2022-10-22T04:23:49.459Z,14.85
2022-10-22T04:26:18.467Z,14.88
2022-10-22T04:28:46.728Z,14.89
2022-10-22T04:31:15.760Z,15.02
2022-10-22T04:33:43.422Z,15.53
2022-10-22T04:36:12.773Z,15.38
2022-10-22T04:38:39.973Z,15.54
2022-10-22T04:41:21.993Z,15.36
2022-10-22T04:43:49.194Z,15.37
2022-10-22T04:46:17.557Z,15.14
2022-10-22T04:48:45.736Z,14.92
2022-10-22T04:51:15.786Z,15.05
2022-10-22T04:53:43.572Z,15.05
2022-10-22T04:56:19.678Z,15.08
2022-10-22T04:58:48.483Z,14.93
2022-10-22T05:01:18.434Z,15.00
2022-10-22T05:03:46.192Z,15.01
2022-10-22T05:06:14.179Z,14.97
2022-10-22T05:08:40.979Z,14.89
2022-10-22T05:11:19.369Z,14.93
2022-10-22T05:13:46.456Z,14.89
2022-10-22T05:16:13.731Z,15.03
2022-10-22T05:18:42.478Z,14.89
2022-10-22T05:21:11.538Z,14.70
2022-10-22T05:23:38.605Z,14.73
2022-10-22T05:26:07.132Z,14.82
2022-10-22T05:28:34.332Z,14.99
2022-10-22T05:31:02.047Z,14.83
2022-10-22T05:33:29.798Z,14.84
2022-10-22T05:35:56.933Z,14.77
2022-10-22T05:38:24.082Z,14.71
2022-10-22T05:41:08.632Z,14.70
2022-10-22T05:43:36.273Z,14.58
2022-10-22T05:46:21.992Z,14.61
2022-10-22T05:48:53.516Z,14.62
2022-10-22T05:51:21.590Z,14.52
2022-10-22T05:53:52.595Z,14.42
2022-10-22T05:56:19.040Z,14.77
2022-10-22T05:58:45.589Z,14.85
2022-10-22T06:01:23.942Z,14.79
2022-10-22T06:03:53.794Z,14.91
2022-10-22T06:06:27.787Z,14.71
2022-10-22T06:08:56.206Z,14.66
2022-10-22T06:11:23.730Z,14.50
2022-10-22T06:13:51.517Z,14.46
2022-10-22T06:16:18.586Z,14.43
2022-10-22T06:18:45.390Z,14.24
2022-10-22T06:21:15.272Z,14.21
2022-10-22T06:23:43.132Z,14.13
2022-10-22T06:26:10.772Z,14.12
2022-10-22T06:28:38.037Z,14.03
2022-10-22T06:31:05.233Z,14.04
2022-10-22T06:33:33.686Z,14.00
2022-10-22T06:36:15.066Z,14.00
2022-10-22T06:38:42.454Z,13.97
2022-10-22T06:41:14.016Z,13.92
2022-10-22T06:43:45.677Z,13.94
2022-10-22T06:46:14.917Z,13.93
2022-10-22T06:48:48.980Z,13.94
2022-10-22T06:51:15.371Z,13.97
2022-10-22T06:53:42.173Z,13.91
2022-10-22T06:56:11.346Z,14.02
2022-10-22T06:58:38.283Z,14.03
2022-10-22T07:01:11.150Z,13.93
2022-10-22T07:03:39.244Z,14.01
2022-10-22T07:06:10.183Z,13.95
2022-10-22T07:08:38.106Z,13.97
2022-10-22T07:11:18.949Z,14.03
2022-10-22T07:13:46.360Z,14.08
2022-10-22T07:16:14.126Z,14.19
2022-10-22T07:18:41.757Z,14.10
2022-10-22T07:21:09.303Z,14.03
2022-10-22T07:23:35.966Z,13.90
2022-10-22T07:26:03.005Z,14.13
2022-10-22T07:28:30.366Z,14.02
2022-10-22T07:30:56.742Z,14.12
2022-10-22T07:33:23.189Z,14.05
2022-10-22T07:35:49.562Z,13.98
2022-10-22T07:38:16.218Z,13.98
2022-10-22T07:40:42.690Z,14.17
2022-10-22T07:43:09.115Z,14.23
2022-10-22T07:45:35.634Z,14.27
2022-10-22T07:48:02.049Z,14.59
2022-10-22T07:50:28.631Z,15.15
2022-10-22T07:52:57.446Z,14.98
2022-10-22T07:55:25.099Z,15.25
2022-10-22T07:57:51.556Z,15.06
2022-10-22T08:00:20.495Z,15.01
2022-10-22T08:02:49.571Z,14.85
2022-10-22T08:05:15.970Z,14.72
2022-10-22T08:07:43.249Z,14.84
2022-10-22T08:10:11.503Z,14.84
2022-10-22T08:12:38.653Z,14.78
2022-10-22T08:15:06.151Z,14.76
2022-10-22T08:17:32.481Z,14.83
2022-10-22T08:19:59.153Z,14.76
2022-10-22T08:22:25.976Z,14.66
2022-10-22T08:24:52.462Z,14.70
2022-10-22T08:27:19.194Z,14.67
2022-10-22T08:29:45.949Z,14.66
2022-10-22T08:32:12.352Z,14.73
2022-10-22T08:34:39.119Z,14.77
2022-10-22T08:37:05.445Z,14.90
2022-10-22T08:39:31.885Z,15.03
2022-10-22T08:42:33.485Z,15.23
2022-10-22T08:45:06.053Z,15.41
2022-10-22T08:47:49.761Z,15.48
2022-10-22T08:50:23.176Z,15.51
2022-10-22T08:52:59.555Z,15.70
2022-10-22T08:55:26.392Z,15.94
2022-10-22T08:57:55.771Z,16.03
2022-10-22T09:00:37.555Z,16.07
2022-10-22T09:03:09.824Z,16.21
2022-10-22T09:05:44.198Z,15.88
2022-10-22T09:08:13.041Z,15.85
2022-10-22T09:10:45.987Z,16.04
2022-10-22T09:13:16.091Z,16.06
2022-10-22T09:15:44.993Z,16.24
2022-10-22T09:18:41.082Z,16.17
2022-10-22T09:21:26.805Z,16.32
2022-10-22T09:24:05.959Z,16.51
2022-10-22T09:26:37.125Z,16.77
2022-10-22T09:29:04.620Z,16.55
2022-10-22T09:31:33.361Z,16.52
2022-10-22T09:34:00.321Z,16.38
2022-10-22T09:36:29.212Z,16.24
2022-10-22T09:38:56.098Z,16.44
2022-10-22T09:41:26.255Z,16.39
2022-10-22T09:43:52.769Z,16.32
2022-10-22T09:46:22.080Z,16.79
2022-10-22T09:48:53.837Z,16.57
2022-10-22T09:51:21.773Z,16.78
2022-10-22T09:53:57.000Z,16.61
2022-10-22T09:56:38.940Z,16.40
2022-10-22T09:59:06.786Z,16.41
2022-10-22T10:01:36.903Z,16.45
2022-10-22T10:04:09.857Z,16.47
2022-10-22T10:06:38.744Z,16.46
2022-10-22T10:09:21.458Z,16.48
2022-10-22T10:12:05.284Z,16.45
2022-10-22T10:14:39.684Z,16.36
2022-10-22T10:17:17.896Z,16.44
2022-10-22T10:20:03.708Z,16.51
2022-10-22T10:22:48.518Z,16.73
2022-10-22T10:25:28.270Z,16.63
2022-10-22T10:28:11.430Z,16.83
2022-10-22T10:30:51.653Z,16.82
2022-10-22T10:33:32.091Z,17.09
2022-10-22T10:36:08.295Z,16.77
2022-10-22T10:38:46.791Z,16.90
2022-10-22T10:41:22.776Z,16.86
2022-10-22T10:43:52.081Z,17.47
2022-10-22T10:46:34.796Z,17.26
2022-10-22T10:49:10.979Z,17.46
2022-10-22T10:51:52.961Z,17.69
2022-10-22T10:54:44.125Z,17.27
2022-10-22T10:57:34.396Z,17.60
2022-10-22T11:00:11.338Z,18.06
2022-10-22T11:02:43.684Z,17.58
2022-10-22T11:05:30.632Z,17.21
2022-10-22T11:08:21.321Z,17.56
2022-10-22T11:11:02.698Z,17.72
2022-10-22T11:13:45.651Z,18.14
2022-10-22T11:16:28.638Z,17.91
2022-10-22T11:19:15.493Z,18.40
2022-10-22T11:22:03.578Z,18.46
2022-10-22T11:24:45.223Z,18.46
2022-10-22T11:27:22.010Z,18.40
2022-10-22T11:30:02.000Z,18.04
2022-10-22T11:32:29.892Z,18.75
2022-10-22T11:35:01.042Z,18.63
2022-10-22T11:37:32.595Z,18.65
2022-10-22T11:40:05.969Z,18.61
2022-10-22T11:42:34.369Z,18.61
2022-10-22T11:45:26.216Z,18.83
2022-10-22T11:47:52.528Z,19.12
2022-10-22T11:50:24.834Z,19.02
2022-10-22T11:53:02.004Z,19.04
2022-10-22T11:55:40.814Z,19.03
2022-10-22T11:58:27.084Z,19.09
2022-10-22T12:01:01.782Z,18.98
2022-10-22T12:03:30.871Z,18.88
2022-10-22T12:06:06.750Z,19.07
2022-10-22T12:08:33.914Z,18.81
2022-10-22T12:11:03.819Z,19.47
2022-10-22T12:13:33.974Z,19.02
2022-10-22T12:16:03.956Z,18.98
2022-10-22T12:18:41.276Z,19.10
2022-10-22T12:21:13.188Z,19.05
2022-10-22T12:23:39.906Z,19.10
2022-10-22T12:26:06.637Z,19.39
2022-10-22T12:28:40.334Z,19.69
2022-10-22T12:31:14.833Z,19.56
2022-10-22T12:33:41.521Z,19.56
2022-10-22T12:36:15.739Z,19.68
2022-10-22T12:38:45.981Z,19.66
2022-10-22T12:41:13.125Z,19.27
2022-10-22T12:43:39.520Z,19.44
2022-10-22T12:46:12.853Z,19.64
2022-10-22T12:48:42.978Z,19.45
2022-10-22T12:51:16.229Z,19.60
2022-10-22T12:53:53.449Z,19.77
2022-10-22T12:56:26.545Z,19.14
2022-10-22T12:58:58.862Z,19.34
2022-10-22T13:01:27.805Z,19.21
2022-10-22T13:04:21.223Z,18.86
2022-10-22T13:07:04.390Z,18.70
2022-10-22T13:09:55.311Z,18.45
2022-10-22T13:12:26.613Z,18.63
2022-10-22T13:14:53.127Z,18.94
2022-10-22T13:17:37.121Z,18.91
2022-10-22T13:20:15.000Z,18.80
2022-10-22T13:22:55.214Z,18.66
2022-10-22T13:25:33.572Z,19.18
2022-10-22T13:28:19.536Z,19.26
2022-10-22T13:31:00.089Z,19.27
2022-10-22T13:33:34.526Z,19.15
2022-10-22T13:36:01.339Z,18.93
2022-10-22T13:38:28.376Z,18.81
2022-10-22T13:40:56.101Z,18.79
2022-10-22T13:43:23.368Z,18.76
2022-10-22T13:45:55.501Z,18.90
2022-10-22T13:48:24.168Z,18.63
2022-10-22T13:50:51.440Z,18.64
2022-10-22T13:53:26.652Z,18.53
2022-10-22T13:55:53.234Z,18.46
2022-10-22T13:58:22.205Z,18.49
2022-10-22T14:00:57.942Z,18.54
2022-10-22T14:03:32.330Z,18.50
2022-10-22T14:05:59.147Z,18.68
2022-10-22T14:08:27.784Z,18.82
2022-10-22T14:10:54.715Z,18.76
2022-10-22T14:13:21.648Z,19.29
2022-10-22T14:15:50.308Z,19.10
2022-10-22T14:18:21.935Z,18.71
2022-10-22T14:20:48.377Z,18.67
2022-10-22T14:23:19.634Z,18.76
2022-10-22T14:25:46.086Z,18.78
2022-10-22T14:28:12.600Z,18.92
2022-10-22T14:30:40.162Z,18.70
2022-10-22T14:33:31.382Z,18.68
2022-10-22T14:36:00.286Z,18.50
2022-10-22T14:38:27.024Z,18.62
2022-10-22T14:40:54.179Z,18.69
2022-10-22T14:43:26.680Z,18.69
2022-10-22T14:45:53.468Z,18.78
2022-10-22T14:50:51.616Z,19.08
2022-10-22T14:53:18.138Z,18.75
2022-10-22T14:55:45.642Z,18.64
2022-10-22T14:58:12.015Z,19.23
2022-10-22T15:00:41.542Z,19.13
2022-10-22T15:03:08.451Z,18.95
2022-10-22T15:05:34.906Z,19.21
2022-10-22T15:08:01.400Z,18.90
2022-10-22T15:10:28.081Z,18.62
2022-10-22T15:12:54.535Z,18.45
2022-10-22T15:18:04.955Z,18.24
2022-10-22T15:20:31.272Z,18.28
2022-10-22T15:22:57.685Z,18.10
2022-10-22T15:25:24.080Z,18.06
2022-10-22T15:27:52.498Z,18.10
2022-10-22T15:30:20.009Z,17.88
2022-10-22T15:32:46.589Z,17.88
2022-10-22T15:35:13.069Z,17.82
2022-10-22T15:37:39.627Z,17.70
2022-10-22T15:40:06.506Z,17.70
2022-10-22T15:42:32.949Z,17.58
2022-10-22T15:44:59.653Z,17.74
2022-10-22T15:47:26.594Z,18.00
2022-10-22T15:49:53.317Z,17.64
2022-10-22T15:52:19.854Z,17.62
2022-10-22T15:54:46.193Z,17.41
2022-10-22T15:57:12.666Z,17.35
2022-10-22T15:59:39.165Z,17.25
2022-10-22T16:02:05.553Z,17.11
2022-10-22T16:04:31.952Z,17.00
2022-10-22T16:06:59.657Z,16.84
2022-10-22T16:09:27.416Z,16.74
2022-10-22T16:11:55.117Z,16.66
2022-10-22T16:14:22.628Z,16.53
2022-10-22T16:16:52.629Z,16.50
2022-10-22T16:19:20.968Z,16.45
2022-10-22T16:21:52.533Z,16.38
2022-10-22T16:24:20.001Z,16.35
2022-10-22T16:26:46.948Z,16.21
2022-10-22T16:29:13.593Z,16.27
2022-10-22T16:31:41.402Z,16.25
2022-10-22T16:34:07.764Z,16.16
2022-10-22T16:36:34.453Z,16.09
2022-10-22T16:39:01.240Z,16.02
2022-10-22T16:41:27.998Z,16.01
2022-10-22T16:43:55.263Z,15.94
2022-10-22T16:46:22.583Z,15.92
2022-10-22T16:48:53.112Z,15.83
2022-10-22T16:51:22.725Z,15.81
2022-10-22T16:53:51.364Z,15.71
2022-10-22T16:56:18.350Z,15.74
2022-10-22T16:58:56.382Z,15.65
2022-10-22T17:01:25.099Z,15.60
2022-10-22T17:03:52.143Z,15.58
2022-10-22T17:06:18.640Z,15.59
2022-10-22T17:08:45.365Z,15.63
2022-10-22T17:11:13.989Z,15.61
2022-10-22T17:13:41.445Z,15.60
2022-10-22T17:16:10.494Z,15.51
2022-10-22T17:18:39.003Z,15.54
2022-10-22T17:21:06.771Z,15.52
2022-10-22T17:23:33.179Z,15.35
2022-10-22T17:26:08.269Z,15.35
2022-10-22T17:28:36.193Z,15.26
2022-10-22T17:31:16.605Z,15.21
2022-10-22T17:33:43.766Z,15.11
2022-10-22T17:36:11.031Z,15.11
2022-10-22T17:38:38.260Z,15.00
2022-10-22T17:41:07.004Z,14.98
2022-10-22T17:43:36.259Z,14.93
2022-10-22T17:46:07.614Z,14.89
2022-10-22T17:48:36.664Z,14.98
2022-10-22T17:51:07.410Z,14.85
2022-10-22T17:53:33.890Z,14.70
2022-10-22T17:56:04.681Z,14.61
2022-10-22T17:58:31.146Z,14.56
2022-10-22T18:00:58.680Z,14.44
2022-10-22T18:03:26.380Z,14.42
2022-10-22T18:05:52.903Z,14.29
2022-10-22T18:08:19.391Z,14.19
2022-10-22T18:10:45.907Z,14.10
2022-10-22T18:13:13.303Z,14.09
2022-10-22T18:15:40.076Z,14.02
2022-10-22T18:18:06.627Z,13.99
2022-10-22T18:20:33.567Z,13.92
2022-10-22T18:23:00.001Z,13.90
2022-10-22T18:25:26.454Z,13.81
2022-10-22T18:27:53.225Z,13.93
2022-10-22T18:30:19.925Z,13.78
2022-10-22T18:32:46.273Z,13.78
2022-10-22T18:35:12.763Z,13.72
2022-10-22T18:37:39.220Z,13.74
2022-10-22T18:40:06.411Z,13.66
2022-10-22T18:42:37.771Z,13.61
2022-10-22T18:45:06.080Z,13.61
2022-10-22T18:47:32.603Z,13.53
2022-10-22T18:49:58.916Z,13.45
2022-10-22T18:52:25.270Z,13.35
2022-10-22T18:54:51.736Z,13.31
2022-10-22T18:57:18.151Z,13.20
2022-10-22T18:59:44.609Z,13.28
2022-10-22T19:02:10.996Z,13.25
2022-10-22T19:04:37.375Z,13.26
2022-10-22T19:07:05.022Z,13.22
2022-10-22T19:09:31.729Z,13.16
2022-10-22T19:11:58.079Z,13.19
2022-10-22T19:14:24.510Z,13.08
2022-10-22T19:16:51.049Z,13.08
2022-10-22T19:19:21.659Z,13.13
2022-10-22T19:21:48.679Z,13.07
2022-10-22T19:24:17.126Z,13.08
2022-10-22T19:26:44.239Z,12.99
2022-10-22T19:29:11.086Z,12.99
2022-10-22T19:31:37.793Z,12.99
2022-10-22T19:34:04.602Z,12.97
2022-10-22T19:36:32.423Z,12.90
2022-10-22T19:38:59.512Z,12.90
2022-10-22T19:41:28.464Z,12.93
2022-10-22T19:43:56.881Z,12.93
2022-10-22T19:46:24.690Z,12.91
2022-10-22T19:51:41.923Z,12.96
2022-10-22T19:54:12.041Z,12.93
2022-10-22T19:56:39.028Z,12.89
2022-10-22T19:59:05.922Z,12.88
2022-10-22T20:01:32.422Z,12.86
2022-10-22T20:03:59.106Z,12.82
2022-10-22T20:06:25.564Z,12.79
2022-10-22T20:08:55.227Z,12.78
2022-10-22T20:11:25.431Z,12.81
2022-10-22T20:13:52.619Z,12.83
2022-10-22T20:16:22.218Z,12.85
2022-10-22T20:18:49.806Z,12.76
2022-10-22T20:21:20.283Z,12.87
2022-10-22T20:23:47.810Z,12.85
2022-10-22T20:26:14.526Z,12.71
2022-10-22T20:28:41.040Z,12.80
2022-10-22T20:31:12.564Z,12.81
2022-10-22T20:33:39.529Z,12.78
2022-10-22T20:36:09.402Z,12.86
2022-10-22T20:41:07.113Z,12.80
2022-10-22T20:43:34.540Z,12.75
2022-10-22T20:46:01.454Z,12.78
2022-10-22T20:48:28.689Z,12.83
2022-10-22T20:50:56.103Z,12.84
2022-10-22T20:53:22.970Z,12.80
2022-10-22T20:55:51.393Z,12.78
2022-10-22T20:58:18.012Z,12.77
2022-10-22T21:00:45.956Z,12.72
2022-10-22T21:03:14.078Z,12.76
2022-10-22T21:05:40.804Z,12.75
2022-10-22T21:08:07.323Z,12.75
2022-10-22T21:10:34.766Z,12.74
2022-10-22T21:13:01.115Z,12.72
2022-10-22T21:15:28.124Z,12.78
2022-10-22T21:17:54.937Z,12.76
2022-10-22T21:20:24.580Z,12.78
2022-10-22T21:22:51.373Z,12.77
2022-10-22T21:25:18.215Z,12.80
2022-10-22T21:27:44.779Z,12.85
2022-10-22T21:30:12.319Z,12.87
2022-10-22T21:32:38.908Z,12.85
2022-10-22T21:35:05.746Z,12.89
2022-10-22T21:37:32.228Z,12.87
2022-10-22T21:39:58.703Z,12.90
2022-10-22T21:42:25.122Z,12.90
2022-10-22T21:44:51.573Z,12.92
2022-10-22T21:47:17.939Z,12.88
2022-10-22T21:49:44.499Z,12.90
2022-10-22T21:52:11.312Z,12.90
2022-10-22T21:54:37.753Z,12.85
2022-10-22T21:57:04.412Z,12.92
2022-10-22T21:59:31.115Z,12.85
2022-10-22T22:02:03.392Z,12.81
2022-10-22T22:04:32.099Z,12.79
2022-10-22T22:06:58.748Z,12.79
2022-10-22T22:09:25.201Z,12.77
2022-10-22T22:11:51.878Z,12.78
2022-10-22T22:14:18.261Z,12.75
2022-10-22T22:16:44.724Z,12.71
2022-10-22T22:19:12.089Z,12.69
2022-10-22T22:21:40.804Z,12.66
2022-10-22T22:24:08.992Z,12.62
2022-10-22T22:26:36.429Z,12.52
2022-10-22T22:29:03.106Z,12.54
2022-10-22T22:31:32.830Z,12.54
2022-10-22T22:34:05.983Z,12.46
2022-10-22T22:36:38.471Z,12.40
2022-10-22T22:39:07.496Z,12.40
2022-10-22T22:41:34.269Z,12.36
2022-10-22T22:44:00.742Z,12.30
2022-10-22T22:46:27.179Z,12.29
2022-10-22T22:48:53.767Z,12.28
2022-10-22T22:51:20.518Z,12.29
2022-10-22T22:53:47.035Z,12.26
2022-10-22T22:56:16.816Z,12.21
2022-10-22T22:58:44.019Z,12.23
2022-10-22T23:01:27.430Z,12.23
2022-10-22T23:03:58.358Z,12.23
2022-10-22T23:06:27.045Z,12.20
2022-10-22T23:08:54.452Z,12.14
2022-10-22T23:11:22.456Z,12.14
2022-10-22T23:13:59.175Z,12.15
2022-10-22T23:16:28.673Z,12.17
2022-10-22T23:18:55.664Z,12.10
2022-10-22T23:21:34.435Z,12.10
2022-10-22T23:24:04.794Z,12.09
2022-10-22T23:26:34.748Z,12.06
2022-10-22T23:29:02.935Z,12.02
2022-10-22T23:31:29.419Z,12.05
2022-10-22T23:33:55.854Z,12.10
2022-10-22T23:36:22.268Z,12.03
2022-10-22T23:38:48.613Z,12.02
2022-10-22T23:41:15.016Z,12.05
2022-10-22T23:43:41.428Z,12.03
2022-10-22T23:46:10.822Z,11.99
2022-10-22T23:48:38.238Z,11.99
2022-10-22T23:51:10.051Z,11.94
2022-10-22T23:53:36.445Z,11.90
2022-10-22T23:56:08.703Z,11.87
2022-10-22T23:58:35.558Z,11.84
